Time;durP1;ratioP1;P1;durP2;ratioP2;P2;SDS_P1;SDS_P2;PMS_P1;PMS_P2;Temp;Humidity;BMP_temperature;BMP_pressure;BME280_temperature;BME280_humidity;BME280_pressure;Samples;Min_cycle;Max_cycle;Signal;HPM_P1;HPM_P2
2022/11/19 00:00:33;;;;;;;2.08;1.05;;;8.60;97.60;;;;;;4932776;29;20048;-75
2022/11/19 00:02:59;;;;;;;3.40;0.90;;;8.50;98.00;;;;;;4931014;29;20032;-77
2022/11/19 00:05:25;;;;;;;3.08;0.90;;;8.30;98.60;;;;;;4931224;29;20672;-76
2022/11/19 00:07:52;;;;;;;3.45;1.10;;;8.40;98.20;;;;;;4940536;28;20524;-74
2022/11/19 00:10:17;;;;;;;2.92;1.00;;;8.50;97.80;;;;;;4934685;28;20111;-75
2022/11/19 00:12:55;;;;;;;1.98;0.90;;;8.40;98.20;;;;;;4935038;28;20408;-75
2022/11/19 00:15:23;;;;;;;4.32;1.20;;;8.40;97.60;;;;;;4933989;29;20501;-76
2022/11/19 00:17:49;;;;;;;1.92;0.90;;;8.50;97.60;;;;;;4944021;29;20043;-74
2022/11/19 00:20:18;;;;;;;1.80;0.77;;;8.70;97.30;;;;;;4937159;28;20086;-74
2022/11/19 00:22:49;;;;;;;1.88;0.80;;;8.80;97.10;;;;;;4942944;29;20090;-74
2022/11/19 00:25:14;;;;;;;3.50;0.80;;;8.80;96.90;;;;;;4941569;29;20035;-74
2022/11/19 00:27:40;;;;;;;2.47;1.00;;;8.80;96.60;;;;;;4946318;29;20063;-74
2022/11/19 00:30:06;;;;;;;2.28;1.10;;;8.70;97.20;;;;;;4939617;29;20089;-74
2022/11/19 00:32:32;;;;;;;2.20;1.00;;;8.70;96.70;;;;;;4949322;29;20382;-74
2022/11/19 00:34:58;;;;;;;2.03;1.20;;;8.50;97.70;;;;;;4937551;28;20023;-76
2022/11/19 00:37:23;;;;;;;6.15;1.13;;;8.50;97.40;;;;;;4946307;28;20083;-74
2022/11/19 00:39:49;;;;;;;1.50;0.80;;;8.50;97.40;;;;;;4942365;28;20114;-74
2022/11/19 00:42:15;;;;;;;3.00;0.98;;;8.60;97.30;;;;;;4943086;29;20031;-74
2022/11/19 00:44:40;;;;;;;2.42;1.05;;;8.50;97.50;;;;;;4943620;28;20032;-74
2022/11/19 00:47:06;;;;;;;1.80;0.85;;;8.50;97.50;;;;;;4943544;28;20031;-74
2022/11/19 00:49:32;;;;;;;1.83;0.90;;;8.50;96.80;;;;;;4943011;28;20066;-74
2022/11/19 00:51:57;;;;;;;1.90;0.90;;;8.60;97.10;;;;;;4943571;28;20697;-74
2022/11/19 00:54:23;;;;;;;3.03;1.00;;;8.60;96.70;;;;;;4943388;29;20372;-73
2022/11/19 00:56:49;;;;;;;3.65;1.10;;;8.60;96.70;;;;;;4943742;28;20062;-74
2022/11/19 00:59:14;;;;;;;1.77;0.93;;;8.50;97.30;;;;;;4941344;29;20655;-74
2022/11/19 01:01:40;;;;;;;2.13;1.17;;;8.40;97.20;;;;;;4941899;29;20494;-74
2022/11/19 01:04:05;;;;;;;3.78;0.90;;;8.40;97.60;;;;;;4944900;29;20031;-74
2022/11/19 01:06:31;;;;;;;2.85;1.00;;;8.40;97.50;;;;;;4944641;28;20039;-74
2022/11/19 01:08:57;;;;;;;2.05;0.85;;;8.30;97.60;;;;;;4944884;28;20478;-74
2022/11/19 01:11:26;;;;;;;2.45;0.90;;;8.40;97.10;;;;;;4945724;29;20042;-74
2022/11/19 01:13:53;;;;;;;1.63;0.70;;;8.50;97.70;;;;;;4941659;29;20062;-74
2022/11/19 01:16:25;;;;;;;2.08;0.90;;;8.40;97.30;;;;;;4942867;29;20027;-74
2022/11/19 01:18:51;;;;;;;2.70;1.00;;;8.40;97.20;;;;;;4942156;29;20035;-74
2022/11/19 01:21:19;;;;;;;1.35;0.65;;;8.30;97.30;;;;;;4942434;28;20043;-73
2022/11/19 01:23:45;;;;;;;1.63;0.80;;;8.30;97.30;;;;;;4944507;28;20032;-74
2022/11/19 01:26:12;;;;;;;2.45;0.90;;;8.30;97.20;;;;;;4942150;29;20038;-74
2022/11/19 01:28:38;;;;;;;1.90;0.95;;;8.20;97.50;;;;;;4944696;28;20498;-74
2022/11/19 01:31:13;;;;;;;1.38;0.65;;;8.20;97.40;;;;;;4943520;29;20039;-74
2022/11/19 01:33:39;;;;;;;1.98;0.88;;;8.10;97.40;;;;;;4941906;29;20655;-74
2022/11/19 01:36:09;;;;;;;2.60;1.13;;;8.00;97.90;;;;;;4944470;28;20094;-74
2022/11/19 01:38:34;;;;;;;1.42;0.70;;;8.00;97.50;;;;;;4941832;28;20035;-74
2022/11/19 01:41:01;;;;;;;4.00;1.42;;;8.30;97.00;;;;;;4936649;28;20019;-74
2022/11/19 01:43:46;;;;;;;2.28;0.70;;;8.30;97.00;;;;;;4943833;28;20466;-74
2022/11/19 01:46:14;;;;;;;1.75;0.95;;;8.00;97.60;;;;;;4945065;28;20038;-74
2022/11/19 01:48:46;;;;;;;1.58;0.65;;;8.20;97.10;;;;;;4943119;29;20035;-74
2022/11/19 01:51:26;;;;;;;1.30;0.70;;;8.20;97.20;;;;;;4951846;29;20051;-74
2022/11/19 01:53:56;;;;;;;1.88;0.85;;;8.20;97.40;;;;;;4948750;28;20071;-74
2022/11/19 01:56:23;;;;;;;2.47;0.65;;;8.20;97.10;;;;;;4942562;28;20039;-74
2022/11/19 01:58:54;;;;;;;1.77;0.45;;;8.00;97.80;;;;;;4942656;29;20044;-74
2022/11/19 02:01:21;;;;;;;1.30;0.50;;;8.00;97.70;;;;;;4945507;29;20054;-74
2022/11/19 02:03:48;;;;;;;1.25;0.57;;;7.90;98.40;;;;;;4943406;29;20065;-74
2022/11/19 02:06:14;;;;;;;1.50;0.70;;;7.70;98.30;;;;;;4944305;28;20037;-74
2022/11/19 02:08:42;;;;;;;1.25;0.80;;;7.70;98.70;;;;;;4946412;28;20131;-75
2022/11/19 02:11:07;;;;;;;1.20;0.60;;;7.60;98.50;;;;;;4945748;28;20037;-74
2022/11/19 02:13:46;;;;;;;1.13;0.57;;;7.60;98.70;;;;;;4938963;29;20113;-74
2022/11/19 02:16:23;;;;;;;1.20;0.70;;;7.40;99.20;;;;;;4942283;28;20487;-74
2022/11/19 02:19:18;;;;;;;1.65;0.45;;;7.30;99.40;;;;;;4941101;29;20130;-74
2022/11/19 02:22:05;;;;;;;2.72;0.50;;;7.40;98.50;;;;;;4944616;29;20068;-74
2022/11/19 02:24:31;;;;;;;1.60;0.63;;;7.20;99.20;;;;;;4942231;29;20402;-73
2022/11/19 02:27:12;;;;;;;1.67;0.50;;;7.40;98.40;;;;;;4940792;28;20024;-74
2022/11/19 02:30:01;;;;;;;1.23;0.50;;;7.40;98.50;;;;;;4939312;29;20042;-74
2022/11/19 02:32:46;;;;;;;0.70;0.40;;;7.40;98.40;;;;;;4943553;29;20482;-74
2022/11/19 02:35:18;;;;;;;3.15;0.70;;;7.30;98.90;;;;;;4941958;29;20031;-74
2022/11/19 02:37:46;;;;;;;1.23;0.50;;;7.10;99.30;;;;;;4945576;28;20046;-74
2022/11/19 02:40:22;;;;;;;1.17;0.40;;;7.10;99.10;;;;;;4940918;28;20030;-74
2022/11/19 02:42:50;;;;;;;1.17;0.43;;;7.00;99.40;;;;;;4941704;29;20034;-74
2022/11/19 02:45:25;;;;;;;1.35;0.70;;;6.90;99.50;;;;;;4938722;29;20038;-74
2022/11/19 02:47:55;;;;;;;1.17;0.60;;;6.60;99.90;;;;;;4938505;28;20028;-74
2022/11/19 02:50:30;;;;;;;0.85;0.45;;;6.30;99.90;;;;;;4940300;29;20574;-74
2022/11/19 02:52:57;;;;;;;0.75;0.40;;;6.30;99.90;;;;;;4941452;29;20028;-74
2022/11/19 02:55:23;;;;;;;1.98;0.60;;;6.50;99.90;;;;;;4945762;29;20028;-74
2022/11/19 02:57:59;;;;;;;1.20;0.70;;;6.60;99.90;;;;;;4943591;28;20049;-74
2022/11/19 03:06:08;;;;;;;1.17;0.52;;;6.70;99.80;;;;;;4940448;29;20046;-74
2022/11/19 03:08:34;;;;;;;1.53;0.50;;;6.70;99.90;;;;;;4940977;29;20405;-74
2022/11/19 03:11:20;;;;;;;0.65;0.50;;;6.70;99.90;;;;;;4940868;28;20039;-74
2022/11/19 03:17:03;;;;;;;0.82;0.40;;;6.30;99.90;;;;;;4947654;28;20050;-74
2022/11/19 03:19:48;;;;;;;1.35;0.50;;;6.60;99.90;;;;;;4937203;29;20043;-74
2022/11/19 03:22:36;;;;;;;1.33;0.57;;;6.70;99.70;;;;;;4940747;29;20038;-74
2022/11/19 03:25:43;;;;;;;1.95;0.43;;;6.70;99.90;;;;;;4943481;29;20111;-73
2022/11/19 03:28:17;;;;;;;1.27;0.32;;;6.70;99.50;;;;;;4941646;29;20568;-74
2022/11/19 03:30:46;;;;;;;1.33;0.50;;;6.60;99.90;;;;;;4944427;29;20039;-74
2022/11/19 03:33:23;;;;;;;2.72;0.70;;;6.50;99.90;;;;;;4943840;28;20054;-74
2022/11/19 03:35:58;;;;;;;1.67;0.47;;;6.20;99.90;;;;;;4941384;28;20023;-74
2022/11/19 03:38:31;;;;;;;2.05;0.47;;;6.00;99.90;;;;;;4939342;28;20067;-74
2022/11/19 03:40:59;;;;;;;1.33;0.73;;;6.30;99.90;;;;;;4945156;28;20027;-74
2022/11/19 03:43:28;;;;;;;1.55;0.40;;;6.20;99.90;;;;;;4945639;29;20055;-74
2022/11/19 03:45:57;;;;;;;1.30;0.20;;;6.30;99.90;;;;;;4944073;29;20490;-74
2022/11/19 03:48:24;;;;;;;0.95;0.40;;;6.30;99.90;;;;;;4946438;28;20036;-74
2022/11/19 03:51:15;;;;;;;0.73;0.45;;;6.20;99.90;;;;;;4945974;29;20478;-74
2022/11/19 03:53:40;;;;;;;2.55;0.50;;;6.10;99.90;;;;;;4946765;29;20394;-74
2022/11/19 03:56:13;;;;;;;1.00;0.47;;;6.20;99.90;;;;;;4944908;28;20040;-74
2022/11/19 03:58:43;;;;;;;4.75;0.90;;;6.20;99.90;;;;;;4948287;29;20482;-75
2022/11/19 04:01:09;;;;;;;1.20;0.40;;;6.20;99.90;;;;;;4943679;29;20122;-73
2022/11/19 04:03:35;;;;;;;0.98;0.43;;;6.30;99.90;;;;;;4938608;28;20170;-76
2022/11/19 04:06:02;;;;;;;0.95;0.50;;;6.50;99.80;;;;;;4943783;28;20118;-73
2022/11/19 04:08:27;;;;;;;2.42;0.70;;;6.30;99.80;;;;;;4944043;28;20044;-74
2022/11/19 04:10:53;;;;;;;0.73;0.43;;;6.80;98.90;;;;;;4939201;28;20027;-73
2022/11/19 04:13:19;;;;;;;1.35;0.45;;;7.00;98.60;;;;;;4939565;29;20118;-74
2022/11/19 04:15:44;;;;;;;2.15;0.60;;;6.80;99.10;;;;;;4938724;28;20112;-73
2022/11/19 04:18:10;;;;;;;3.85;0.85;;;6.60;99.20;;;;;;4937407;29;20042;-73
2022/11/19 04:20:36;;;;;;;1.23;0.50;;;6.50;99.60;;;;;;4938581;29;20162;-73
2022/11/19 04:23:01;;;;;;;9.88;0.80;;;6.40;99.50;;;;;;4930660;28;20409;-73
2022/11/19 04:25:27;;;;;;;1.75;0.60;;;6.60;99.20;;;;;;4938911;28;20027;-74
2022/11/19 04:27:53;;;;;;;2.33;0.40;;;6.70;99.20;;;;;;4934114;29;20035;-74
2022/11/19 04:30:18;;;;;;;2.70;0.47;;;6.40;99.70;;;;;;4938693;28;20042;-73
2022/11/19 04:32:45;;;;;;;0.98;0.40;;;6.30;99.90;;;;;;4939441;28;20695;-73
2022/11/19 04:35:11;;;;;;;0.32;0.20;;;6.20;99.90;;;;;;4936185;28;20035;-73
2022/11/19 04:37:36;;;;;;;1.35;0.57;;;6.20;99.90;;;;;;4940120;28;20052;-73
2022/11/19 04:40:03;;;;;;;2.50;0.40;;;6.20;99.90;;;;;;4937566;29;20574;-74
2022/11/19 04:42:29;;;;;;;1.27;0.52;;;6.20;99.90;;;;;;4939554;28;20122;-74
2022/11/19 04:44:54;;;;;;;0.70;0.32;;;6.10;99.90;;;;;;4938656;29;20115;-74
2022/11/19 04:47:20;;;;;;;1.30;0.35;;;6.00;99.90;;;;;;4944593;29;20034;-75
2022/11/19 04:49:45;;;;;;;2.03;0.60;;;5.80;99.90;;;;;;4930783;29;20032;-74
2022/11/19 04:52:11;;;;;;;1.60;0.30;;;5.80;99.90;;;;;;4941008;29;20024;-74
2022/11/19 04:54:37;;;;;;;3.63;1.25;;;5.90;99.90;;;;;;4939668;29;20696;-74
2022/11/19 04:57:02;;;;;;;1.58;0.70;;;6.00;99.90;;;;;;4929923;29;20488;-75
2022/11/19 04:59:28;;;;;;;0.73;0.32;;;5.80;99.90;;;;;;4934874;29;20069;-73
2022/11/19 05:01:53;;;;;;;1.08;0.30;;;6.00;99.90;;;;;;4936541;29;20035;-74
2022/11/19 05:04:19;;;;;;;0.15;0.15;;;6.30;99.60;;;;;;4937061;28;20035;-74
2022/11/19 05:06:45;;;;;;;0.55;0.15;;;6.30;99.80;;;;;;4933714;28;20030;-74
2022/11/19 05:09:10;;;;;;;1.33;0.50;;;6.40;99.70;;;;;;4936789;29;20597;-74
2022/11/19 05:11:36;;;;;;;1.50;0.50;;;6.20;99.90;;;;;;4929524;28;20032;-74
2022/11/19 05:14:02;;;;;;;1.85;0.60;;;6.20;99.80;;;;;;4929500;29;20489;-76
2022/11/19 05:16:27;;;;;;;0.82;0.22;;;6.10;99.90;;;;;;4936890;29;20430;-74
2022/11/19 05:18:53;;;;;;;0.52;0.22;;;6.10;99.90;;;;;;4939391;28;20047;-74
2022/11/19 05:21:19;;;;;;;3.58;0.80;;;5.80;99.90;;;;;;4931747;29;20035;-73
2022/11/19 05:23:44;;;;;;;0.63;0.50;;;5.80;99.90;;;;;;4935240;29;20034;-75
2022/11/19 05:26:10;;;;;;;1.08;0.50;;;5.70;99.90;;;;;;4936790;29;20035;-74
2022/11/19 05:28:35;;;;;;;1.52;0.70;;;5.60;99.90;;;;;;4939659;28;20157;-74
2022/11/19 05:31:02;;;;;;;0.35;0.20;;;5.90;99.90;;;;;;4941380;28;20145;-75
2022/11/19 05:33:28;;;;;;;1.25;0.38;;;6.40;99.30;;;;;;4932077;28;20118;-73
2022/11/19 05:35:54;;;;;;;1.00;0.40;;;6.70;98.50;;;;;;4936207;28;20130;-74
2022/11/19 05:38:19;;;;;;;1.25;0.40;;;6.70;98.40;;;;;;4935100;29;20167;-75
2022/11/19 05:40:45;;;;;;;0.85;0.32;;;6.70;98.30;;;;;;4930067;29;20130;-73
2022/11/19 05:43:11;;;;;;;1.73;0.47;;;6.80;98.40;;;;;;4936625;29;20036;-73
2022/11/19 05:45:37;;;;;;;0.85;0.32;;;6.60;99.10;;;;;;4928300;29;20172;-74
2022/11/19 05:48:03;;;;;;;2.10;0.80;;;6.30;99.40;;;;;;4930386;29;20031;-74
2022/11/19 05:50:29;;;;;;;0.10;0.10;;;6.40;99.10;;;;;;4935813;28;20035;-75
2022/11/19 05:52:56;;;;;;;1.08;0.55;;;6.50;99.00;;;;;;4935099;29;20035;-75
2022/11/19 05:55:21;;;;;;;1.63;0.70;;;6.50;99.10;;;;;;4926409;29;20054;-74
2022/11/19 05:57:47;;;;;;;1.63;0.40;;;6.70;98.40;;;;;;4931229;29;20039;-73
2022/11/19 06:00:14;;;;;;;1.13;0.40;;;6.60;98.70;;;;;;4935306;28;20048;-75
2022/11/19 06:02:39;;;;;;;1.05;0.45;;;6.60;99.10;;;;;;4936858;28;20074;-74
2022/11/19 06:05:05;;;;;;;0.65;0.35;;;6.50;99.40;;;;;;4928175;29;20055;-74
2022/11/19 06:07:31;;;;;;;0.70;0.35;;;6.40;99.20;;;;;;4934574;29;20514;-74
2022/11/19 06:09:56;;;;;;;0.70;0.40;;;6.40;99.90;;;;;;4928342;28;20512;-74
2022/11/19 06:12:22;;;;;;;0.40;0.30;;;6.20;99.90;;;;;;4928492;29;20054;-73
2022/11/19 06:14:48;;;;;;;1.38;0.50;;;6.10;99.90;;;;;;4933910;29;20035;-74
2022/11/19 06:17:14;;;;;;;0.70;0.30;;;6.20;99.60;;;;;;4927574;29;20082;-74
2022/11/19 06:19:39;;;;;;;2.80;0.30;;;6.40;99.20;;;;;;4931666;29;20090;-74
2022/11/19 06:22:05;;;;;;;1.33;0.40;;;6.30;99.40;;;;;;4935055;29;20054;-74
2022/11/19 06:24:31;;;;;;;1.30;0.43;;;6.20;99.90;;;;;;4929056;29;20058;-74
2022/11/19 06:26:56;;;;;;;0.90;0.40;;;6.10;99.90;;;;;;4931900;28;20063;-74
2022/11/19 06:29:22;;;;;;;0.98;0.55;;;5.80;99.90;;;;;;4931899;28;20087;-74
2022/11/19 06:31:48;;;;;;;0.75;0.50;;;5.90;99.90;;;;;;4934815;29;20034;-74
2022/11/19 06:34:13;;;;;;;2.13;0.35;;;5.90;99.90;;;;;;4932834;29;20669;-74
2022/11/19 06:36:39;;;;;;;1.05;0.43;;;6.00;99.90;;;;;;4924154;28;20423;-74
2022/11/19 06:39:05;;;;;;;0.95;0.52;;;6.00;99.90;;;;;;4938131;29;20623;-74
2022/11/19 06:41:31;;;;;;;1.20;0.38;;;6.00;99.90;;;;;;4939187;28;20031;-74
2022/11/19 06:43:56;;;;;;;1.67;0.85;;;6.00;99.90;;;;;;4930655;28;20383;-74
2022/11/19 06:46:22;;;;;;;1.23;0.40;;;6.20;99.90;;;;;;4935484;29;20027;-74
2022/11/19 06:48:48;;;;;;;1.42;0.50;;;6.20;99.90;;;;;;4935087;29;20098;-73
2022/11/19 06:51:13;;;;;;;1.05;0.60;;;6.60;98.90;;;;;;4933888;28;20036;-73
2022/11/19 06:53:39;;;;;;;0.77;0.32;;;6.70;98.30;;;;;;4938604;28;20510;-73
2022/11/19 06:56:06;;;;;;;1.15;0.50;;;6.70;98.40;;;;;;4937683;28;20618;-75
2022/11/19 06:58:32;;;;;;;1.15;0.40;;;6.70;98.20;;;;;;4932920;28;20043;-77
2022/11/19 07:00:58;;;;;;;1.08;0.40;;;6.70;98.40;;;;;;4935405;28;20122;-72
2022/11/19 07:03:24;;;;;;;1.17;0.57;;;6.70;98.10;;;;;;4943000;28;20035;-73
2022/11/19 07:05:54;;;;;;;1.73;0.52;;;6.70;98.20;;;;;;4929655;29;20039;-74
2022/11/19 07:08:20;;;;;;;1.55;0.82;;;6.50;98.90;;;;;;4923912;28;20035;-74
2022/11/19 07:10:45;;;;;;;0.73;0.30;;;6.50;98.80;;;;;;4929436;28;20032;-75
2022/11/19 07:13:12;;;;;;;4.07;2.25;;;6.30;99.30;;;;;;4935921;29;20028;-74
2022/11/19 07:15:37;;;;;;;2.08;0.65;;;6.30;99.80;;;;;;4943169;28;20043;-75
2022/11/19 07:18:03;;;;;;;2.83;0.70;;;6.30;99.20;;;;;;4938632;29;20031;-73
2022/11/19 07:20:29;;;;;;;2.28;0.82;;;6.50;98.50;;;;;;4930292;29;20055;-73
2022/11/19 07:22:55;;;;;;;1.65;0.60;;;6.60;98.40;;;;;;4928068;29;23450;-74
2022/11/19 07:25:21;;;;;;;1.40;0.68;;;6.40;98.80;;;;;;4930373;28;20351;-74
2022/11/19 07:27:47;;;;;;;1.95;0.60;;;6.40;99.20;;;;;;4937344;28;20059;-74
2022/11/19 07:30:14;;;;;;;3.88;0.63;;;6.30;99.10;;;;;;4932945;28;20031;-73
2022/11/19 07:32:41;;;;;;;1.80;0.43;;;6.20;99.70;;;;;;4933039;29;20036;-74
2022/11/19 07:35:08;;;;;;;0.85;0.40;;;6.30;98.80;;;;;;4935946;28;20046;-76
2022/11/19 07:37:38;;;;;;;1.23;0.43;;;6.50;98.70;;;;;;4929960;29;20055;-75
2022/11/19 07:40:04;;;;;;;2.40;0.82;;;6.30;98.70;;;;;;4931779;28;20511;-77
2022/11/19 07:42:48;;;;;;;0.73;0.30;;;6.20;99.30;;;;;;4939708;28;20469;-74
2022/11/19 07:45:15;;;;;;;1.33;0.52;;;6.60;97.90;;;;;;4933725;28;20036;-75
2022/11/19 07:47:41;;;;;;;2.58;0.82;;;6.60;98.40;;;;;;4934013;28;20118;-75
2022/11/19 07:50:07;;;;;;;1.50;0.73;;;6.60;98.00;;;;;;4935233;28;20052;-76
2022/11/19 07:52:33;;;;;;;3.92;1.30;;;6.60;98.20;;;;;;4935845;28;20039;-75
2022/11/19 07:54:58;;;;;;;3.83;1.45;;;6.50;98.60;;;;;;4930281;28;20031;-76
2022/11/19 07:57:24;;;;;;;2.20;0.68;;;6.40;99.20;;;;;;4931826;29;20054;-74
2022/11/19 07:59:50;;;;;;;1.42;0.65;;;6.30;98.90;;;;;;4935478;28;20102;-73
2022/11/19 08:02:15;;;;;;;0.68;0.40;;;6.30;99.70;;;;;;4928847;29;20028;-75
2022/11/19 08:04:41;;;;;;;1.45;0.75;;;6.30;99.40;;;;;;4927922;29;20035;-75
2022/11/19 08:07:07;;;;;;;3.40;0.80;;;6.50;99.00;;;;;;4926432;28;20594;-75
2022/11/19 08:09:33;;;;;;;2.35;0.95;;;6.30;99.70;;;;;;4933928;29;20051;-75
2022/11/19 08:11:58;;;;;;;0.77;0.30;;;6.30;99.80;;;;;;4940187;28;20131;-77
2022/11/19 08:14:24;;;;;;;1.48;0.50;;;6.20;99.90;;;;;;4928276;28;20074;-75
2022/11/19 08:19:34;;;;;;;0.90;0.50;;;6.70;98.70;;;;;;4935629;29;20093;-74
2022/11/19 08:22:01;;;;;;;1.77;0.60;;;6.60;99.50;;;;;;4929393;28;20054;-72
2022/11/19 08:24:26;;;;;;;0.55;0.35;;;6.80;98.80;;;;;;4930521;28;20154;-70
2022/11/19 08:26:52;;;;;;;1.05;0.40;;;6.80;98.70;;;;;;4935410;28;20035;-72
2022/11/19 08:29:20;;;;;;;1.42;0.70;;;7.00;97.90;;;;;;4938759;28;20038;-71
2022/11/19 08:31:47;;;;;;;0.98;0.50;;;6.90;98.60;;;;;;4937061;28;20030;-72
2022/11/19 08:34:14;;;;;;;1.17;0.63;;;7.00;97.70;;;;;;4936454;28;20035;-74
2022/11/19 08:36:39;;;;;;;0.57;0.35;;;7.00;98.50;;;;;;4935537;28;20050;-73
2022/11/19 08:39:06;;;;;;;2.10;0.52;;;7.00;98.10;;;;;;4940750;28;20463;-73
2022/11/19 08:44:17;;;;;;;1.80;0.70;;;7.30;97.20;;;;;;4936127;28;20055;-74
2022/11/19 08:46:43;;;;;;;1.25;0.50;;;7.40;97.50;;;;;;4936482;28;20034;-74
2022/11/19 08:49:10;;;;;;;1.17;0.60;;;7.50;96.30;;;;;;4933823;28;20459;-74
2022/11/19 08:51:36;;;;;;;1.05;0.22;;;7.60;97.40;;;;;;4931853;28;20168;-75
2022/11/19 08:54:02;;;;;;;2.97;0.47;;;7.50;97.50;;;;;;4939947;28;20061;-74
2022/11/19 08:56:28;;;;;;;0.95;0.45;;;7.50;97.60;;;;;;4935224;28;20034;-75
2022/11/19 08:58:54;;;;;;;2.45;0.80;;;7.50;97.10;;;;;;4935010;28;20047;-74
2022/11/19 09:01:19;;;;;;;0.35;0.20;;;7.60;97.40;;;;;;4934294;28;20148;-74
2022/11/19 09:03:45;;;;;;;3.10;0.75;;;7.60;98.20;;;;;;4927808;29;20028;-74
2022/11/19 09:06:11;;;;;;;1.40;0.65;;;7.50;98.80;;;;;;4941643;28;20035;-75
2022/11/19 09:08:37;;;;;;;1.85;0.60;;;7.40;99.90;;;;;;4931271;28;20397;-73
2022/11/19 09:11:09;;;;;;;1.42;0.57;;;7.10;99.10;;;;;;4940939;28;20031;-75
2022/11/19 09:13:35;;;;;;;1.40;0.30;;;7.20;98.50;;;;;;4942749;29;20045;-75
2022/11/19 09:16:01;;;;;;;1.70;0.50;;;7.20;99.90;;;;;;4946692;28;20039;-75
2022/11/19 09:18:27;;;;;;;1.92;0.80;;;7.10;99.20;;;;;;4936693;28;20039;-75
2022/11/19 09:20:54;;;;;;;2.10;1.00;;;7.10;98.60;;;;;;4934285;28;20035;-75
2022/11/19 09:23:20;;;;;;;1.52;0.63;;;7.00;98.60;;;;;;4937162;28;20466;-74
2022/11/19 09:25:55;;;;;;;1.88;0.75;;;7.20;98.50;;;;;;4938200;28;20520;-74
2022/11/19 09:28:20;;;;;;;2.53;0.73;;;7.10;98.90;;;;;;4937146;29;20032;-74
2022/11/19 09:30:57;;;;;;;1.98;0.68;;;7.10;98.90;;;;;;4930531;29;20414;-74
2022/11/19 09:33:23;;;;;;;2.40;0.65;;;7.10;98.70;;;;;;4936219;29;20639;-74
2022/11/19 09:35:49;;;;;;;0.60;0.25;;;7.20;98.30;;;;;;4948211;28;20478;-74
2022/11/19 09:38:14;;;;;;;1.17;0.35;;;7.10;99.40;;;;;;4935060;28;20083;-74
2022/11/19 09:40:48;;;;;;;0.85;0.32;;;7.00;99.30;;;;;;4934037;29;20110;-74
2022/11/19 09:43:38;;;;;;;1.13;0.50;;;7.10;97.70;;;;;;4930516;28;20217;-74
2022/11/19 09:46:29;;;;;;;1.20;0.50;;;7.20;97.90;;;;;;4936478;28;20512;-74
2022/11/19 09:49:01;;;;;;;1.10;0.50;;;7.40;98.10;;;;;;4933476;28;20063;-75
2022/11/19 09:51:31;;;;;;;5.13;0.88;;;7.60;96.90;;;;;;4939991;28;22094;-74
2022/11/19 09:54:06;;;;;;;1.98;0.70;;;7.80;97.90;;;;;;4946684;28;20082;-73
2022/11/19 09:56:38;;;;;;;2.35;0.90;;;7.50;98.50;;;;;;4935026;28;20694;-74
2022/11/19 09:59:15;;;;;;;0.65;0.30;;;7.60;97.50;;;;;;4955638;28;20077;-74
2022/11/19 10:01:41;;;;;;;1.38;0.65;;;7.80;96.40;;;;;;4949326;28;20038;-74
2022/11/19 10:04:09;;;;;;;1.52;0.40;;;7.90;96.60;;;;;;4947081;28;20035;-74
2022/11/19 10:06:35;;;;;;;1.45;0.50;;;8.10;96.20;;;;;;4948680;28;20035;-74
2022/11/19 10:09:34;;;;;;;1.33;0.45;;;8.10;96.20;;;;;;4946268;28;20029;-74
2022/11/19 10:12:45;;;;;;;1.60;0.55;;;8.30;95.80;;;;;;4946513;28;20683;-72
2022/11/19 10:15:24;;;;;;;1.33;0.52;;;8.60;95.60;;;;;;4939094;28;20051;-73
2022/11/19 10:18:30;;;;;;;1.80;0.50;;;8.70;95.40;;;;;;4946733;29;20055;-75
2022/11/19 10:21:31;;;;;;;1.83;0.82;;;8.70;95.60;;;;;;4941296;28;20031;-76
2022/11/19 10:24:16;;;;;;;1.35;0.57;;;8.90;97.60;;;;;;4944915;28;20047;-75
2022/11/19 10:27:13;;;;;;;0.93;0.40;;;8.90;97.00;;;;;;4934237;28;20036;-74
2022/11/19 10:29:39;;;;;;;1.52;0.60;;;8.90;95.90;;;;;;4948976;28;20043;-76
2022/11/19 10:32:50;;;;;;;2.00;0.38;;;8.90;95.90;;;;;;4948801;28;20073;-75
2022/11/19 10:35:22;;;;;;;2.85;0.90;;;9.00;96.30;;;;;;4955350;28;20105;-75
2022/11/19 10:38:17;;;;;;;3.08;0.90;;;9.00;96.00;;;;;;4950357;29;20051;-74
2022/11/19 10:40:51;;;;;;;2.28;0.88;;;9.00;96.30;;;;;;4945256;28;20097;-75
2022/11/19 10:43:49;;;;;;;3.92;0.90;;;9.00;96.30;;;;;;4945970;28;20035;-74
2022/11/19 10:46:20;;;;;;;1.10;0.50;;;9.20;96.10;;;;;;4942287;28;20514;-75
2022/11/19 10:48:50;;;;;;;2.08;0.68;;;9.30;96.40;;;;;;4951010;28;20075;-75
2022/11/19 10:51:29;;;;;;;2.03;0.85;;;9.40;96.00;;;;;;4954042;28;20034;-73
2022/11/19 10:53:56;;;;;;;1.35;0.70;;;9.50;96.00;;;;;;4955305;29;20059;-72
2022/11/19 10:56:34;;;;;;;1.92;1.10;;;9.50;96.00;;;;;;4946083;28;20033;-72
2022/11/19 10:59:06;;;;;;;3.03;0.90;;;9.50;96.30;;;;;;4943372;28;20578;-73
2022/11/19 11:01:35;;;;;;;2.22;0.80;;;9.90;96.30;;;;;;4949228;28;20073;-73
2022/11/19 11:04:25;;;;;;;2.35;0.90;;;10.00;95.90;;;;;;4944015;28;20685;-71
2022/11/19 11:06:52;;;;;;;1.95;0.60;;;10.00;96.20;;;;;;4949781;28;20122;-73
2022/11/19 11:09:34;;;;;;;2.03;0.80;;;10.10;95.30;;;;;;4942497;28;20047;-72
2022/11/19 11:15:24;;;;;;;;;;;10.20;95.30;;;;;;4946168;28;20614;-73
2022/11/19 11:18:08;;;;;;;2.35;0.70;;;10.20;95.10;;;;;;4939171;28;19922;-73
2022/11/19 11:20:35;;;;;;;4.55;0.80;;;10.40;96.40;;;;;;4951344;29;20043;-73
2022/11/19 11:23:13;;;;;;;1.88;0.60;;;10.80;96.50;;;;;;4952818;28;20037;-73
2022/11/19 11:25:48;;;;;;;1.40;0.60;;;10.70;94.70;;;;;;4937294;28;20062;-72
2022/11/19 11:28:17;;;;;;;1.13;0.75;;;10.60;94.50;;;;;;4952545;28;20375;-73
2022/11/19 11:30:58;;;;;;;1.27;0.60;;;10.50;94.60;;;;;;4953583;28;20071;-73
2022/11/19 11:33:34;;;;;;;0.98;0.50;;;10.90;94.40;;;;;;4943448;28;20039;-73
2022/11/19 11:36:20;;;;;;;1.75;0.52;;;10.90;94.10;;;;;;4935957;28;20050;-73
2022/11/19 11:38:49;;;;;;;1.00;0.70;;;10.80;93.60;;;;;;4944343;28;20490;-73
2022/11/19 11:41:20;;;;;;;1.35;0.57;;;11.00;94.00;;;;;;4946666;28;20028;-73
2022/11/19 11:44:02;;;;;;;1.40;0.68;;;11.10;93.60;;;;;;4952100;28;20031;-73
2022/11/19 11:46:36;;;;;;;1.13;0.40;;;11.00;92.00;;;;;;4952292;28;20039;-73
2022/11/19 11:49:02;;;;;;;1.58;0.57;;;10.90;91.50;;;;;;4947059;28;20090;-72
2022/11/19 11:51:38;;;;;;;1.35;0.73;;;11.00;91.70;;;;;;4933998;29;20024;-73
2022/11/19 11:54:19;;;;;;;3.20;0.65;;;11.00;90.90;;;;;;4944349;28;20033;-73
2022/11/19 11:56:46;;;;;;;0.52;0.20;;;11.30;91.60;;;;;;4937409;28;20070;-72
2022/11/19 11:59:25;;;;;;;1.20;0.30;;;11.50;91.60;;;;;;4943784;28;20044;-73
2022/11/19 12:01:56;;;;;;;1.00;0.38;;;11.50;91.00;;;;;;4933730;28;20044;-73
2022/11/19 12:04:22;;;;;;;2.13;0.80;;;11.40;91.80;;;;;;4933344;28;20042;-73
2022/11/19 12:07:28;;;;;;;0.95;0.55;;;11.40;91.90;;;;;;4933812;28;20063;-73
2022/11/19 12:10:15;;;;;;;1.80;0.60;;;11.20;92.00;;;;;;4947911;28;20054;-73
2022/11/19 12:13:02;;;;;;;1.63;0.70;;;11.10;92.20;;;;;;4950229;28;20038;-73
2022/11/19 12:15:49;;;;;;;2.53;0.77;;;11.20;91.90;;;;;;4951392;28;20027;-72
2022/11/19 12:18:57;;;;;;;2.47;0.98;;;11.30;92.40;;;;;;4934809;28;20067;-72
2022/11/19 12:21:42;;;;;;;1.83;1.00;;;11.30;92.90;;;;;;4955371;28;20078;-73
2022/11/19 12:24:26;;;;;;;;;;;11.00;93.10;;;;;;4941905;28;20063;-72
2022/11/19 12:27:33;;;;;;;3.13;0.68;;;11.00;93.30;;;;;;4949046;28;19973;-73
2022/11/19 12:30:11;;;;;;;2.70;0.93;;;11.00;93.50;;;;;;4945713;28;20039;-73
2022/11/19 12:33:11;;;;;;;1.52;0.68;;;11.00;93.20;;;;;;4932912;29;20035;-73
2022/11/19 12:36:03;;;;;;;2.17;0.70;;;11.10;93.20;;;;;;4944233;28;20038;-73
2022/11/19 12:38:35;;;;;;;2.35;0.75;;;11.20;93.40;;;;;;4951817;28;20490;-72
2022/11/19 12:41:47;;;;;;;2.85;0.80;;;11.20;93.20;;;;;;4942725;28;20402;-73
2022/11/19 12:44:21;;;;;;;3.42;0.80;;;11.20;92.70;;;;;;4936635;28;20446;-73
2022/11/19 12:46:56;;;;;;;2.33;0.90;;;11.10;92.90;;;;;;4950878;28;20509;-73
2022/11/19 12:49:37;;;;;;;1.23;0.60;;;11.00;92.60;;;;;;4939446;28;20106;-72
2022/11/19 12:52:28;;;;;;;2.22;0.90;;;11.00;92.80;;;;;;4935049;28;20521;-73
2022/11/19 12:55:08;;;;;;;2.70;0.70;;;11.00;93.10;;;;;;4948164;28;20086;-73
2022/11/19 12:57:48;;;;;;;1.38;0.70;;;11.10;93.10;;;;;;4932854;29;20043;-73
2022/11/19 13:00:19;;;;;;;2.58;0.90;;;11.10;93.30;;;;;;4944029;28;20075;-73
2022/11/19 13:03:07;;;;;;;3.17;1.13;;;11.10;93.10;;;;;;4933131;29;20031;-72
2022/11/19 13:05:46;;;;;;;2.85;1.00;;;11.10;93.00;;;;;;4941599;28;20501;-73
2022/11/19 13:08:32;;;;;;;2.10;0.63;;;11.10;92.90;;;;;;4948066;28;20034;-72
2022/11/19 13:11:07;;;;;;;2.25;0.90;;;11.20;93.00;;;;;;4932613;28;20482;-73
2022/11/19 13:13:37;;;;;;;8.57;1.00;;;11.20;93.10;;;;;;4932884;29;20039;-72
2022/11/19 13:16:11;;;;;;;1.15;0.50;;;11.60;93.30;;;;;;4946684;28;20053;-73
2022/11/19 13:18:40;;;;;;;1.27;0.50;;;11.40;93.10;;;;;;4937819;28;20054;-72
2022/11/19 13:21:39;;;;;;;2.78;0.85;;;11.30;93.90;;;;;;4932802;28;20036;-73
2022/11/19 13:24:15;;;;;;;2.42;0.95;;;11.30;93.50;;;;;;4932477;28;20046;-73
2022/11/19 13:26:41;;;;;;;1.42;0.55;;;11.30;93.30;;;;;;4947656;28;20055;-73
2022/11/19 13:29:34;;;;;;;2.15;0.68;;;11.30;93.50;;;;;;4932766;29;20066;-73
2022/11/19 13:32:21;;;;;;;1.13;0.47;;;11.30;93.40;;;;;;4932475;29;20040;-73
2022/11/19 13:35:00;;;;;;;1.60;0.65;;;11.30;92.50;;;;;;4932541;28;20110;-73